createdAt,value
2022-12-15T00:00:27.383Z,-8.53
2022-12-15T00:01:26.337Z,-8.48
2022-12-15T00:02:26.460Z,-8.48
2022-12-15T00:03:26.506Z,-8.48
2022-12-15T00:04:26.325Z,-8.47
2022-12-15T00:05:26.320Z,-8.47
2022-12-15T00:06:26.324Z,-8.50
2022-12-15T00:07:26.264Z,-8.53
2022-12-15T00:08:26.291Z,-8.48
2022-12-15T00:09:30.697Z,-8.63
2022-12-15T00:10:26.258Z,-8.63
2022-12-15T00:11:26.220Z,-8.72
2022-12-15T00:12:26.217Z,-8.75
2022-12-15T00:13:26.218Z,-8.66
2022-12-15T00:14:26.202Z,-8.76
2022-12-15T00:15:26.192Z,-8.74
2022-12-15T00:16:26.225Z,-8.76
2022-12-15T00:17:26.236Z,-8.75
2022-12-15T00:18:26.153Z,-8.69
2022-12-15T00:19:26.150Z,-8.71
2022-12-15T00:20:26.167Z,-8.68
2022-12-15T00:21:26.134Z,-8.74
2022-12-15T00:22:33.671Z,-8.78
2022-12-15T00:23:26.102Z,-8.82
2022-12-15T00:24:26.095Z,-8.86
2022-12-15T00:25:26.097Z,-8.87
2022-12-15T00:26:26.097Z,-8.86
2022-12-15T00:27:34.605Z,-8.94
2022-12-15T00:28:26.046Z,-8.92
2022-12-15T00:29:26.048Z,-8.79
2022-12-15T00:30:26.048Z,-8.79
2022-12-15T00:31:26.095Z,-8.94
2022-12-15T00:32:26.025Z,-8.89
2022-12-15T00:33:26.028Z,-8.92
2022-12-15T00:34:25.992Z,-8.90
2022-12-15T00:35:25.988Z,-8.90
2022-12-15T00:36:25.970Z,-8.89
2022-12-15T00:37:25.962Z,-8.89
2022-12-15T00:38:25.981Z,-8.96
2022-12-15T00:39:25.945Z,-8.93
2022-12-15T00:40:25.939Z,-8.96
2022-12-15T00:41:25.924Z,-8.94
2022-12-15T00:42:25.918Z,-8.99
2022-12-15T00:43:25.910Z,-9.04
2022-12-15T00:44:25.963Z,-9.18
2022-12-15T00:45:25.886Z,-9.11
2022-12-15T00:46:25.926Z,-9.13
2022-12-15T00:47:25.870Z,-9.17
2022-12-15T00:48:25.868Z,-9.14
2022-12-15T00:49:25.868Z,-9.14
2022-12-15T00:50:25.853Z,-9.08
2022-12-15T00:51:25.825Z,-9.10
2022-12-15T00:52:25.820Z,-9.11
2022-12-15T00:53:25.813Z,-9.11
2022-12-15T00:54:25.811Z,-9.07
2022-12-15T00:55:25.783Z,-9.14
2022-12-15T00:56:25.802Z,-9.18
2022-12-15T00:57:25.775Z,-9.15
2022-12-15T00:58:25.760Z,-9.10
2022-12-15T00:59:25.756Z,-9.10
2022-12-15T01:00:25.751Z,-9.07
2022-12-15T01:01:25.857Z,-9.13
2022-12-15T01:02:25.938Z,-9.07
2022-12-15T01:03:25.813Z,-9.08
2022-12-15T01:04:25.715Z,-9.10
2022-12-15T01:05:25.799Z,-9.22
2022-12-15T01:06:25.691Z,-9.05
2022-12-15T01:07:25.666Z,-9.22
2022-12-15T01:08:25.666Z,-9.10
2022-12-15T01:09:25.665Z,-9.10
2022-12-15T01:10:25.654Z,-9.20
2022-12-15T01:11:25.638Z,-9.22
2022-12-15T01:12:25.628Z,-9.24
2022-12-15T01:13:25.614Z,-9.17
2022-12-15T01:14:25.603Z,-9.20
2022-12-15T01:15:25.592Z,-9.32
2022-12-15T01:16:25.640Z,-9.29
2022-12-15T01:17:25.575Z,-9.32
2022-12-15T01:18:25.551Z,-9.29
2022-12-15T01:19:25.555Z,-9.31
2022-12-15T01:20:25.560Z,-9.22
2022-12-15T01:21:25.748Z,-9.35
2022-12-15T01:22:25.533Z,-9.17
2022-12-15T01:23:25.506Z,-9.31
2022-12-15T01:24:25.513Z,-9.18
2022-12-15T01:25:25.519Z,-9.28
2022-12-15T01:26:25.488Z,-9.25
2022-12-15T01:27:25.488Z,-9.32
2022-12-15T01:28:25.460Z,-9.34
2022-12-15T01:29:25.447Z,-9.31
2022-12-15T01:30:25.437Z,-9.32
2022-12-15T01:31:25.472Z,-9.32
2022-12-15T01:32:34.222Z,-9.24
2022-12-15T01:33:25.415Z,-9.29
2022-12-15T01:34:25.404Z,-9.31
2022-12-15T01:35:25.458Z,-9.18
2022-12-15T01:36:25.380Z,-9.32
2022-12-15T01:37:25.524Z,-9.31
2022-12-15T01:38:25.400Z,-9.28
2022-12-15T01:39:25.350Z,-9.17
2022-12-15T01:40:25.352Z,-9.24
2022-12-15T01:41:25.339Z,-9.18
2022-12-15T01:42:25.350Z,-9.32
2022-12-15T01:43:25.331Z,-9.22
2022-12-15T01:44:25.311Z,-9.18
2022-12-15T01:45:25.298Z,-9.18
2022-12-15T01:46:25.378Z,-9.26
2022-12-15T01:47:25.291Z,-9.34
2022-12-15T01:48:25.270Z,-9.17
2022-12-15T01:49:25.291Z,-9.32
2022-12-15T01:50:25.247Z,-9.28
2022-12-15T01:51:25.234Z,-9.34
2022-12-15T01:52:25.256Z,-9.32
2022-12-15T01:53:25.234Z,-9.32
2022-12-15T01:54:25.202Z,-9.24
2022-12-15T01:55:25.196Z,-9.25
2022-12-15T01:56:25.209Z,-9.26
2022-12-15T01:57:25.182Z,-9.32
2022-12-15T01:58:25.168Z,-9.31
2022-12-15T01:59:25.158Z,-9.28
2022-12-15T02:00:25.228Z,-9.31
2022-12-15T02:01:25.286Z,-9.36
2022-12-15T02:02:25.204Z,-9.35
2022-12-15T02:03:25.221Z,-9.26
2022-12-15T02:04:25.102Z,-9.45
2022-12-15T02:05:25.101Z,-9.38
2022-12-15T02:06:25.102Z,-9.48
2022-12-15T02:07:25.071Z,-9.45
2022-12-15T02:08:25.071Z,-9.50
2022-12-15T02:09:25.191Z,-9.43
2022-12-15T02:10:25.118Z,-9.32
2022-12-15T02:11:25.038Z,-9.26
2022-12-15T02:12:25.030Z,-9.25
2022-12-15T02:13:25.013Z,-9.18
2022-12-15T02:14:25.022Z,-9.18
2022-12-15T02:15:25.006Z,-9.17
2022-12-15T02:16:25.051Z,-9.15
2022-12-15T02:17:24.985Z,-9.20
2022-12-15T02:18:24.975Z,-9.20
2022-12-15T02:19:24.946Z,-9.07
2022-12-15T02:20:24.950Z,-9.15
2022-12-15T02:21:24.929Z,-9.11
2022-12-15T02:22:24.929Z,-9.11
2022-12-15T02:23:24.917Z,-9.10
2022-12-15T02:24:24.947Z,-9.10
2022-12-15T02:25:24.915Z,-9.10
2022-12-15T02:26:24.903Z,-9.05
2022-12-15T02:27:24.870Z,-9.10
2022-12-15T02:28:24.866Z,-8.90
2022-12-15T02:29:24.861Z,-8.97
2022-12-15T02:30:24.852Z,-8.94
2022-12-15T02:31:33.833Z,-8.94
2022-12-15T02:32:24.822Z,-8.93
2022-12-15T02:33:24.809Z,-8.94
2022-12-15T02:34:24.829Z,-8.90
2022-12-15T02:35:24.798Z,-8.90
2022-12-15T02:36:24.790Z,-8.94
2022-12-15T02:37:24.796Z,-8.99
2022-12-15T02:38:32.367Z,-8.90
2022-12-15T02:39:32.362Z,-8.87
2022-12-15T02:40:32.376Z,-8.90
2022-12-15T02:41:33.275Z,-8.74
2022-12-15T02:42:24.732Z,-8.74
2022-12-15T02:43:24.723Z,-8.76
2022-12-15T02:44:24.721Z,-8.76
2022-12-15T02:45:24.761Z,-8.68
2022-12-15T02:46:24.682Z,-8.75
2022-12-15T02:47:24.712Z,-8.68
2022-12-15T02:48:24.683Z,-8.63
2022-12-15T02:49:24.674Z,-8.53
2022-12-15T02:50:24.644Z,-8.58
2022-12-15T02:51:24.640Z,-8.61
2022-12-15T02:52:24.630Z,-8.57
2022-12-15T02:53:24.657Z,-8.64
2022-12-15T02:54:24.612Z,-8.61
2022-12-15T02:55:24.601Z,-8.69
2022-12-15T02:56:24.830Z,-8.63
2022-12-15T02:57:24.569Z,-8.57
2022-12-15T02:58:24.575Z,-8.48
2022-12-15T02:59:24.578Z,-8.53
2022-12-15T03:00:24.554Z,-8.40
2022-12-15T03:01:24.716Z,-8.40
2022-12-15T03:02:24.662Z,-8.40
2022-12-15T03:03:24.568Z,-8.32
2022-12-15T03:04:24.503Z,-8.40
2022-12-15T03:05:24.535Z,-8.32
2022-12-15T03:06:24.500Z,-8.33
2022-12-15T03:07:24.489Z,-8.35
2022-12-15T03:08:24.469Z,-8.39
2022-12-15T03:09:24.453Z,-8.43
2022-12-15T03:10:24.455Z,-8.50
2022-12-15T03:11:24.438Z,-8.47
2022-12-15T03:12:24.459Z,-8.50
2022-12-15T03:13:24.424Z,-8.50
2022-12-15T03:14:24.444Z,-8.47
2022-12-15T03:15:24.397Z,-8.42
2022-12-15T03:16:24.434Z,-8.43
2022-12-15T03:17:24.384Z,-8.36
2022-12-15T03:18:24.388Z,-8.32
2022-12-15T03:19:24.361Z,-8.21
2022-12-15T03:20:24.368Z,-8.24
2022-12-15T03:21:24.337Z,-8.21
2022-12-15T03:22:24.329Z,-8.19
2022-12-15T03:23:24.311Z,-8.16
2022-12-15T03:24:24.313Z,-8.07
2022-12-15T03:25:24.292Z,-8.21
2022-12-15T03:26:24.307Z,-8.35
2022-12-15T03:27:24.273Z,-8.47
2022-12-15T03:28:24.310Z,-8.42
2022-12-15T03:29:24.267Z,-8.43
2022-12-15T03:30:24.250Z,-8.48
2022-12-15T03:31:24.316Z,-8.39
2022-12-15T03:32:24.235Z,-8.40
2022-12-15T03:33:24.826Z,-8.37
2022-12-15T03:34:31.688Z,-8.32
2022-12-15T03:35:25.032Z,-8.25
2022-12-15T03:36:24.262Z,-8.16
2022-12-15T03:37:24.514Z,-8.25
2022-12-15T03:38:24.422Z,-8.24
2022-12-15T03:39:24.937Z,-8.16
2022-12-15T03:40:27.133Z,-8.21
2022-12-15T03:41:24.268Z,-8.21
2022-12-15T03:42:24.132Z,-8.32
2022-12-15T03:43:24.117Z,-8.16
2022-12-15T03:44:24.134Z,-8.22
2022-12-15T03:45:24.093Z,-8.35
2022-12-15T03:46:24.156Z,-8.29
2022-12-15T03:47:24.070Z,-8.22
2022-12-15T03:48:24.071Z,-8.18
2022-12-15T03:49:24.061Z,-8.26
2022-12-15T03:50:24.042Z,-8.26
2022-12-15T03:51:24.034Z,-8.25
2022-12-15T03:52:24.030Z,-8.24
2022-12-15T03:53:24.035Z,-8.24
2022-12-15T03:54:24.009Z,-8.24
2022-12-15T03:55:23.989Z,-8.21
2022-12-15T03:56:24.030Z,-8.21
2022-12-15T03:57:23.973Z,-8.24
2022-12-15T03:58:23.972Z,-8.26
2022-12-15T03:59:23.961Z,-8.26
2022-12-15T04:00:23.972Z,-8.18
2022-12-15T04:01:24.043Z,-8.26
2022-12-15T04:02:24.204Z,-8.15
2022-12-15T04:03:24.070Z,-8.30
2022-12-15T04:04:23.913Z,-8.32
2022-12-15T04:05:23.892Z,-8.29
2022-12-15T04:06:23.890Z,-8.39
2022-12-15T04:07:23.909Z,-8.37
2022-12-15T04:08:23.876Z,-8.45
2022-12-15T04:09:23.861Z,-8.36
2022-12-15T04:10:27.291Z,-8.37
2022-12-15T04:11:24.838Z,-8.37
2022-12-15T04:12:23.851Z,-8.33
2022-12-15T04:13:23.869Z,-8.35
2022-12-15T04:14:23.814Z,-8.30
2022-12-15T04:15:23.797Z,-8.24
2022-12-15T04:16:23.846Z,-8.26
2022-12-15T04:17:23.792Z,-8.21
2022-12-15T04:18:23.779Z,-8.19
2022-12-15T04:19:23.765Z,-8.24
2022-12-15T04:20:23.744Z,-8.26
2022-12-15T04:21:23.741Z,-8.29
2022-12-15T04:22:31.279Z,-8.24
2022-12-15T04:23:23.741Z,-8.25
2022-12-15T04:24:23.736Z,-8.24
2022-12-15T04:25:23.707Z,-8.25
2022-12-15T04:26:23.687Z,-8.22
2022-12-15T04:27:23.685Z,-8.18
2022-12-15T04:28:23.690Z,-8.26
2022-12-15T04:29:23.665Z,-8.29
2022-12-15T04:30:23.658Z,-8.32
2022-12-15T04:31:23.680Z,-8.35
2022-12-15T04:32:23.664Z,-8.32
2022-12-15T04:33:29.125Z,-8.26
2022-12-15T04:34:24.637Z,-8.25
2022-12-15T04:35:23.619Z,-8.18
2022-12-15T04:36:23.584Z,-8.26
2022-12-15T04:37:23.579Z,-8.33
2022-12-15T04:38:23.572Z,-8.37
2022-12-15T04:39:23.552Z,-8.35
2022-12-15T04:40:23.561Z,-8.42
2022-12-15T04:41:23.543Z,-8.40
2022-12-15T04:42:23.539Z,-8.53
2022-12-15T04:43:23.519Z,-8.40
2022-12-15T04:44:23.506Z,-8.45
2022-12-15T04:45:23.498Z,-8.39
2022-12-15T04:46:23.593Z,-8.42
2022-12-15T04:47:23.501Z,-8.36
2022-12-15T04:48:23.492Z,-8.35
2022-12-15T04:49:23.529Z,-8.33
2022-12-15T04:50:23.445Z,-8.35
2022-12-15T04:51:24.100Z,-8.40
2022-12-15T04:52:23.432Z,-8.37
2022-12-15T04:53:23.433Z,-8.36
2022-12-15T04:54:23.417Z,-8.35
2022-12-15T04:55:23.409Z,-8.36
2022-12-15T04:56:33.393Z,-8.35
2022-12-15T04:57:23.371Z,-8.36
2022-12-15T04:58:32.934Z,-8.36
2022-12-15T04:59:23.362Z,-8.36
2022-12-15T05:00:23.350Z,-8.40
2022-12-15T05:01:23.520Z,-8.33
2022-12-15T05:02:23.501Z,-8.32
2022-12-15T05:03:23.316Z,-8.36
2022-12-15T05:04:23.463Z,-8.39
2022-12-15T05:05:23.302Z,-8.43
2022-12-15T05:06:23.345Z,-8.39
2022-12-15T05:07:23.272Z,-8.33
2022-12-15T05:08:23.276Z,-8.39
2022-12-15T05:09:23.258Z,-8.54
2022-12-15T05:10:23.282Z,-8.47
2022-12-15T05:11:23.240Z,-8.45
2022-12-15T05:12:23.228Z,-8.57
2022-12-15T05:13:23.232Z,-8.51
2022-12-15T05:14:23.206Z,-8.40
2022-12-15T05:15:23.211Z,-8.40
2022-12-15T05:16:23.224Z,-8.43
2022-12-15T05:17:23.219Z,-8.42
2022-12-15T05:18:23.166Z,-8.40
2022-12-15T05:19:23.188Z,-8.50
2022-12-15T05:20:23.162Z,-8.37
2022-12-15T05:21:23.147Z,-8.43
2022-12-15T05:22:23.124Z,-8.40
2022-12-15T05:23:23.122Z,-8.40
2022-12-15T05:24:23.118Z,-8.54
2022-12-15T05:25:23.124Z,-8.54
2022-12-15T05:26:23.089Z,-8.53
2022-12-15T05:27:23.074Z,-8.57
2022-12-15T05:28:23.082Z,-8.57
2022-12-15T05:29:23.056Z,-8.60
2022-12-15T05:30:23.050Z,-8.58
2022-12-15T05:31:23.178Z,-8.45
2022-12-15T05:32:23.035Z,-8.50
2022-12-15T05:33:23.015Z,-8.42
2022-12-15T05:34:23.027Z,-8.50
2022-12-15T05:35:23.014Z,-8.54
2022-12-15T05:36:23.008Z,-8.51
2022-12-15T05:37:22.992Z,-8.50
2022-12-15T05:38:22.971Z,-8.58
2022-12-15T05:39:22.958Z,-8.58
2022-12-15T05:40:22.966Z,-8.51
2022-12-15T05:41:22.943Z,-8.63
2022-12-15T05:42:22.938Z,-8.57
2022-12-15T05:43:26.402Z,-8.54
2022-12-15T05:44:22.924Z,-8.61
2022-12-15T05:45:22.955Z,-8.69
2022-12-15T05:46:22.949Z,-8.55
2022-12-15T05:47:22.884Z,-8.66
2022-12-15T05:48:22.938Z,-8.64
2022-12-15T05:49:22.879Z,-8.68
2022-12-15T05:50:22.852Z,-8.75
2022-12-15T05:51:22.847Z,-8.76
2022-12-15T05:52:22.876Z,-8.75
2022-12-15T05:53:22.817Z,-8.75
2022-12-15T05:54:22.815Z,-8.75
2022-12-15T05:55:22.806Z,-8.76
2022-12-15T05:56:22.804Z,-8.79
2022-12-15T05:57:22.796Z,-8.74
2022-12-15T05:58:22.789Z,-8.74
2022-12-15T05:59:22.760Z,-8.72
2022-12-15T06:00:22.755Z,-8.68
2022-12-15T06:01:22.785Z,-8.71
2022-12-15T06:02:22.918Z,-8.68
2022-12-15T06:03:22.725Z,-8.74
2022-12-15T06:04:22.796Z,-8.76
2022-12-15T06:05:22.701Z,-8.81
2022-12-15T06:06:22.689Z,-8.71
2022-12-15T06:07:22.685Z,-8.76
2022-12-15T06:08:22.702Z,-8.75
2022-12-15T06:09:22.652Z,-8.82
2022-12-15T06:10:22.652Z,-8.79
2022-12-15T06:11:22.641Z,-8.78
2022-12-15T06:12:22.644Z,-8.93
2022-12-15T06:13:22.632Z,-8.97
2022-12-15T06:14:22.600Z,-9.04
2022-12-15T06:15:22.617Z,-9.07
2022-12-15T06:16:22.651Z,-9.07
2022-12-15T06:17:22.576Z,-8.99
2022-12-15T06:18:22.590Z,-9.04
2022-12-15T06:19:22.558Z,-8.93
2022-12-15T06:20:22.560Z,-8.94
2022-12-15T06:21:22.617Z,-8.90
2022-12-15T06:22:22.531Z,-8.93
2022-12-15T06:23:22.514Z,-8.96
2022-12-15T06:24:22.546Z,-8.99
2022-12-15T06:25:22.502Z,-8.93
2022-12-15T06:26:22.497Z,-8.93
2022-12-15T06:27:22.506Z,-8.92
2022-12-15T06:28:22.467Z,-8.89
2022-12-15T06:29:22.477Z,-8.90
2022-12-15T06:30:22.459Z,-8.87
2022-12-15T06:31:22.515Z,-8.92
2022-12-15T06:32:22.426Z,-8.89
2022-12-15T06:33:22.421Z,-8.92
2022-12-15T06:34:22.412Z,-8.90
2022-12-15T06:35:22.397Z,-8.94
2022-12-15T06:36:22.402Z,-8.90
2022-12-15T06:37:22.403Z,-8.93
2022-12-15T06:38:22.374Z,-9.08
2022-12-15T06:39:22.366Z,-9.08
2022-12-15T06:40:22.368Z,-9.13
2022-12-15T06:41:22.362Z,-9.14
2022-12-15T06:42:22.350Z,-9.07
2022-12-15T06:43:22.321Z,-9.05
2022-12-15T06:44:22.319Z,-9.05
2022-12-15T06:45:22.311Z,-9.11
2022-12-15T06:46:22.398Z,-9.07
2022-12-15T06:47:22.285Z,-9.04
2022-12-15T06:48:22.283Z,-9.11
2022-12-15T06:49:22.304Z,-9.08
2022-12-15T06:50:22.295Z,-9.10
2022-12-15T06:51:22.261Z,-9.17
2022-12-15T06:52:22.237Z,-9.15
2022-12-15T06:53:22.223Z,-9.14
2022-12-15T06:54:22.215Z,-9.13
2022-12-15T06:55:22.214Z,-9.14
2022-12-15T06:56:25.703Z,-9.11
2022-12-15T06:57:23.194Z,-9.04
2022-12-15T06:58:22.169Z,-9.08
2022-12-15T06:59:22.171Z,-9.08
2022-12-15T07:00:22.163Z,-9.07
2022-12-15T07:01:22.288Z,-8.97
2022-12-15T07:02:28.513Z,-9.11
2022-12-15T07:03:23.486Z,-9.11
2022-12-15T07:04:22.234Z,-9.02
2022-12-15T07:05:22.107Z,-9.05
2022-12-15T07:06:22.092Z,-9.05
2022-12-15T07:07:31.921Z,-9.08
2022-12-15T07:08:27.108Z,-9.11
2022-12-15T07:09:23.062Z,-9.14
2022-12-15T07:10:22.062Z,-9.08
2022-12-15T07:11:22.055Z,-9.13
2022-12-15T07:12:22.059Z,-9.07
2022-12-15T07:13:22.027Z,-9.07
2022-12-15T07:14:22.019Z,-9.07
2022-12-15T07:15:22.033Z,-9.07
2022-12-15T07:16:22.144Z,-9.02
2022-12-15T07:17:21.995Z,-9.07
2022-12-15T07:18:21.981Z,-9.08
2022-12-15T07:19:21.983Z,-9.00
2022-12-15T07:20:28.481Z,-9.00
2022-12-15T07:21:22.948Z,-9.05
2022-12-15T07:22:22.001Z,-9.13
2022-12-15T07:23:34.383Z,-9.10
2022-12-15T07:24:22.921Z,-9.17
2022-12-15T07:25:21.908Z,-9.07
2022-12-15T07:26:21.924Z,-9.02
2022-12-15T07:27:21.900Z,-8.94
2022-12-15T07:28:25.746Z,-8.90
2022-12-15T07:29:23.594Z,-8.97
2022-12-15T07:30:21.863Z,-8.93
2022-12-15T07:31:22.071Z,-8.94
2022-12-15T07:32:21.844Z,-9.02
2022-12-15T07:33:21.826Z,-8.99
2022-12-15T07:34:21.819Z,-8.99
2022-12-15T07:35:21.814Z,-8.96
2022-12-15T07:36:21.825Z,-9.00
2022-12-15T07:37:21.812Z,-8.94
2022-12-15T07:38:21.785Z,-8.92
2022-12-15T07:39:21.776Z,-8.94
2022-12-15T07:40:21.757Z,-8.97
2022-12-15T07:41:21.769Z,-8.93
2022-12-15T07:42:21.783Z,-8.92
2022-12-15T07:43:21.751Z,-8.96
2022-12-15T07:44:21.738Z,-8.89
2022-12-15T07:45:21.721Z,-8.92
2022-12-15T07:46:21.757Z,-8.90
2022-12-15T07:47:21.691Z,-8.92
2022-12-15T07:48:21.673Z,-8.90
2022-12-15T07:49:21.692Z,-8.87
2022-12-15T07:50:21.720Z,-8.89
2022-12-15T07:51:21.670Z,-8.93
2022-12-15T07:52:21.642Z,-8.86
2022-12-15T07:53:21.636Z,-8.75
2022-12-15T07:54:21.621Z,-8.79
2022-12-15T07:55:43.294Z,-8.79
2022-12-15T07:56:22.596Z,-8.74
2022-12-15T07:57:21.588Z,-8.76
2022-12-15T07:58:21.587Z,-8.69
2022-12-15T07:59:21.585Z,-8.74
2022-12-15T08:00:21.627Z,-8.72
2022-12-15T08:01:21.818Z,-8.69
2022-12-15T08:02:21.735Z,-8.75
2022-12-15T08:03:21.684Z,-8.74
2022-12-15T08:04:21.524Z,-8.66
2022-12-15T08:05:21.535Z,-8.71
2022-12-15T08:06:21.521Z,-8.68
2022-12-15T08:07:21.514Z,-8.71
2022-12-15T08:08:21.497Z,-8.69
2022-12-15T08:09:21.472Z,-8.55
2022-12-15T08:10:21.468Z,-8.58
2022-12-15T08:11:21.453Z,-8.57
2022-12-15T08:12:21.454Z,-8.50
2022-12-15T08:13:52.359Z,-8.48
2022-12-15T08:14:22.818Z,-8.42
2022-12-15T08:15:21.435Z,-8.53
2022-12-15T08:16:21.525Z,-8.37
2022-12-15T08:17:21.409Z,-8.33
2022-12-15T08:18:21.389Z,-8.32
2022-12-15T08:19:21.377Z,-8.22
2022-12-15T08:20:21.367Z,-8.21
2022-12-15T08:21:21.376Z,-8.25
2022-12-15T08:22:21.346Z,-8.16
2022-12-15T08:23:21.334Z,-8.08
2022-12-15T08:24:21.329Z,-8.08
2022-12-15T08:25:21.323Z,-8.12
2022-12-15T08:26:26.613Z,-8.01
2022-12-15T08:27:22.302Z,-8.03
2022-12-15T08:28:21.282Z,-7.99
2022-12-15T08:30:22.266Z,-8.01
2022-12-15T08:31:21.307Z,-8.03
2022-12-15T08:32:21.441Z,-7.93
2022-12-15T08:33:21.234Z,-8.03
2022-12-15T08:34:21.244Z,-7.92
2022-12-15T08:35:54.619Z,-7.90
2022-12-15T08:36:22.195Z,-7.95
2022-12-15T08:37:21.227Z,-7.81
2022-12-15T08:38:21.193Z,-7.72
2022-12-15T08:39:21.170Z,-7.65
2022-12-15T08:40:21.158Z,-7.54
2022-12-15T08:41:21.180Z,-7.54
2022-12-15T08:42:21.141Z,-7.49
2022-12-15T08:43:21.138Z,-7.37
2022-12-15T08:44:21.131Z,-7.35
2022-12-15T08:45:21.110Z,-7.39
2022-12-15T08:46:21.220Z,-7.40
2022-12-15T08:47:21.093Z,-7.31
2022-12-15T08:48:21.103Z,-7.29
2022-12-15T08:49:22.414Z,-7.19
2022-12-15T08:50:21.066Z,-7.08
2022-12-15T08:51:21.051Z,-7.11
2022-12-15T08:52:21.041Z,-7.07
2022-12-15T08:53:31.391Z,-7.03
2022-12-15T08:54:22.033Z,-6.97
2022-12-15T08:55:22.597Z,-7.08
2022-12-15T08:56:21.058Z,-7.11
2022-12-15T08:57:20.991Z,-6.98
2022-12-15T08:58:20.996Z,-6.97
2022-12-15T08:59:20.981Z,-6.89
2022-12-15T09:00:20.974Z,-6.90
2022-12-15T09:01:23.656Z,-6.87
2022-12-15T09:02:21.062Z,-6.86
2022-12-15T09:03:20.934Z,-6.85
2022-12-15T09:04:21.044Z,-6.77
2022-12-15T09:05:20.908Z,-6.67
2022-12-15T09:06:20.928Z,-6.64
2022-12-15T09:07:20.901Z,-6.56
2022-12-15T09:08:20.883Z,-6.40
2022-12-15T09:09:20.875Z,-6.39
2022-12-15T09:10:20.860Z,-6.34
2022-12-15T09:11:20.912Z,-6.32
2022-12-15T09:12:20.844Z,-6.24
2022-12-15T09:13:20.825Z,-6.10
2022-12-15T09:14:27.293Z,-6.00
2022-12-15T09:15:39.226Z,-5.95
2022-12-15T09:16:21.878Z,-5.81
2022-12-15T09:17:20.883Z,-5.70
2022-12-15T09:18:20.778Z,-5.61
2022-12-15T09:19:20.779Z,-5.56
2022-12-15T09:20:20.780Z,-5.50
2022-12-15T09:21:20.768Z,-5.47
2022-12-15T09:22:20.733Z,-5.39
2022-12-15T09:23:20.723Z,-5.33
2022-12-15T09:24:32.149Z,-5.36
2022-12-15T09:25:21.719Z,-5.29
2022-12-15T09:26:20.721Z,-5.09
2022-12-15T09:27:20.709Z,-5.10
2022-12-15T09:28:20.679Z,-4.99
2022-12-15T09:29:20.692Z,-4.95
2022-12-15T09:30:20.663Z,-4.92
2022-12-15T09:31:20.764Z,-4.91
2022-12-15T09:32:20.644Z,-4.85
2022-12-15T09:33:20.654Z,-4.85
2022-12-15T09:34:20.620Z,-4.87
2022-12-15T09:35:20.614Z,-4.75
2022-12-15T09:36:20.619Z,-4.71
2022-12-15T09:37:20.639Z,-4.66
2022-12-15T09:38:20.583Z,-4.57
2022-12-15T09:39:20.573Z,-4.45
2022-12-15T09:40:20.556Z,-4.41
2022-12-15T09:41:20.545Z,-4.35
2022-12-15T09:42:20.535Z,-4.28
2022-12-15T09:43:34.327Z,-4.24
2022-12-15T09:44:21.520Z,-4.20
2022-12-15T09:45:20.522Z,-4.25
2022-12-15T09:46:20.578Z,-4.17
2022-12-15T09:47:20.476Z,-4.15
2022-12-15T09:48:20.494Z,-4.10
2022-12-15T09:49:20.492Z,-4.07
2022-12-15T09:50:20.451Z,-4.02
2022-12-15T09:51:20.457Z,-4.05
2022-12-15T09:52:20.543Z,-4.03
2022-12-15T09:53:53.024Z,-4.14
2022-12-15T09:54:21.413Z,-4.18
2022-12-15T09:55:20.443Z,-4.28
2022-12-15T09:56:20.396Z,-4.28
2022-12-15T09:57:20.388Z,-4.35
2022-12-15T09:58:20.414Z,-4.41
2022-12-15T09:59:20.363Z,-4.41
2022-12-15T10:00:20.351Z,-4.36
2022-12-15T10:01:20.440Z,-4.41
2022-12-15T10:02:20.449Z,-4.41
2022-12-15T10:03:20.590Z,-4.36
2022-12-15T10:04:20.412Z,-4.28
2022-12-15T10:05:20.293Z,-4.30
2022-12-15T10:06:22.222Z,-4.34
2022-12-15T10:07:20.280Z,-4.34
2022-12-15T10:08:20.292Z,-4.27
2022-12-15T10:09:20.275Z,-4.34
2022-12-15T10:10:20.281Z,-4.25
2022-12-15T10:11:20.232Z,-4.28
2022-12-15T10:12:20.232Z,-4.25
2022-12-15T10:13:20.216Z,-4.30
2022-12-15T10:14:20.219Z,-4.25
2022-12-15T10:15:20.193Z,-4.24
2022-12-15T10:16:20.287Z,-4.25
2022-12-15T10:17:20.195Z,-4.23
2022-12-15T10:18:20.168Z,-4.23
2022-12-15T10:19:20.163Z,-4.24
2022-12-15T10:20:20.146Z,-4.10
2022-12-15T10:21:20.139Z,-4.15
2022-12-15T10:22:20.146Z,-4.02
2022-12-15T10:23:20.153Z,-3.96
2022-12-15T10:24:44.260Z,-3.94
2022-12-15T10:25:29.481Z,-3.88
2022-12-15T10:26:21.125Z,-3.91
2022-12-15T10:27:20.087Z,-3.89
2022-12-15T10:28:20.083Z,-3.84
2022-12-15T10:29:20.050Z,-3.77
2022-12-15T10:30:20.133Z,-3.79
2022-12-15T10:31:20.071Z,-3.81
2022-12-15T10:32:20.030Z,-3.74
2022-12-15T10:33:20.034Z,-3.84
2022-12-15T10:34:20.015Z,-3.72
2022-12-15T10:35:20.001Z,-3.81
2022-12-15T10:36:19.982Z,-3.70
2022-12-15T10:37:19.976Z,-3.74
2022-12-15T10:38:19.962Z,-3.62
2022-12-15T10:39:19.967Z,-3.65
2022-12-15T10:40:20.050Z,-3.51
2022-12-15T10:41:19.935Z,-3.54
2022-12-15T10:42:19.927Z,-3.48
2022-12-15T10:43:19.922Z,-3.48
2022-12-15T10:44:19.923Z,-3.38
2022-12-15T10:45:19.892Z,-3.39
2022-12-15T10:46:20.015Z,-3.42
2022-12-15T10:47:19.862Z,-3.41
2022-12-15T10:48:19.864Z,-3.39
2022-12-15T10:49:19.842Z,-3.33
2022-12-15T10:50:24.500Z,-3.29
2022-12-15T10:51:20.819Z,-3.30
2022-12-15T10:52:19.819Z,-3.16
2022-12-15T10:53:19.813Z,-3.20
2022-12-15T10:54:19.799Z,-3.16
2022-12-15T10:55:19.798Z,-3.21
2022-12-15T10:56:19.807Z,-3.13
2022-12-15T10:57:19.758Z,-3.02
2022-12-15T10:58:19.758Z,-2.97
2022-12-15T10:59:19.758Z,-2.91
2022-12-15T11:00:19.741Z,-2.92
2022-12-15T11:01:19.887Z,-2.90
2022-12-15T11:02:23.936Z,-2.74
2022-12-15T11:03:20.931Z,-2.66
2022-12-15T11:04:19.722Z,-2.67
2022-12-15T11:05:19.715Z,-2.51
2022-12-15T11:06:19.676Z,-2.45
2022-12-15T11:07:19.654Z,-2.38
2022-12-15T11:08:19.655Z,-2.34
2022-12-15T11:09:19.636Z,-2.37
2022-12-15T11:10:19.624Z,-2.48
2022-12-15T11:11:19.710Z,-2.38
2022-12-15T11:12:19.631Z,-2.37
2022-12-15T11:13:19.611Z,-2.30
2022-12-15T11:14:19.591Z,-2.40
2022-12-15T11:15:19.576Z,-2.33
2022-12-15T11:16:19.577Z,-2.22
2022-12-15T11:17:19.583Z,-2.29
2022-12-15T11:18:19.547Z,-2.30
2022-12-15T11:19:19.535Z,-2.21
2022-12-15T11:20:19.530Z,-2.22
2022-12-15T11:21:19.518Z,-2.34
2022-12-15T11:22:19.514Z,-2.21
2022-12-15T11:23:19.501Z,-2.21
2022-12-15T11:24:19.505Z,-2.21
2022-12-15T11:25:19.476Z,-2.33
2022-12-15T11:26:19.466Z,-2.33
2022-12-15T11:27:19.465Z,-2.26
2022-12-15T11:28:19.455Z,-2.26
2022-12-15T11:29:19.431Z,-2.24
2022-12-15T11:30:19.573Z,-2.35
2022-12-15T11:31:19.418Z,-2.27
2022-12-15T11:32:19.412Z,-2.29
2022-12-15T11:33:19.396Z,-2.29
2022-12-15T11:34:19.383Z,-2.38
2022-12-15T11:35:19.373Z,-2.34
2022-12-15T11:36:19.381Z,-2.40
2022-12-15T11:37:19.370Z,-2.34
2022-12-15T11:38:19.351Z,-2.30
2022-12-15T11:39:19.407Z,-2.34
2022-12-15T11:40:19.390Z,-2.29
2022-12-15T11:41:19.313Z,-2.27
2022-12-15T11:42:19.304Z,-2.38
2022-12-15T11:43:19.299Z,-2.37
2022-12-15T11:44:19.299Z,-2.30
2022-12-15T11:45:19.280Z,-2.30
2022-12-15T11:46:19.252Z,-2.26
2022-12-15T11:47:19.241Z,-2.30
2022-12-15T11:48:19.235Z,-2.26
2022-12-15T11:49:19.253Z,-2.18
2022-12-15T11:50:19.295Z,-2.18
2022-12-15T11:51:19.216Z,-2.19
2022-12-15T11:52:19.193Z,-2.19
2022-12-15T11:53:19.187Z,-2.14
2022-12-15T11:54:19.173Z,-2.09
2022-12-15T11:55:22.983Z,-2.09
2022-12-15T11:56:20.146Z,-2.11
2022-12-15T11:57:19.149Z,-2.22
2022-12-15T11:58:19.134Z,-2.06
2022-12-15T11:59:19.118Z,-2.15
2022-12-15T12:00:19.237Z,-2.09
2022-12-15T12:01:19.193Z,-2.08
2022-12-15T12:02:19.197Z,-2.06
2022-12-15T12:03:19.152Z,-2.04
2022-12-15T12:04:19.069Z,-2.00
2022-12-15T12:05:19.066Z,-2.09
2022-12-15T12:06:19.052Z,-1.97
2022-12-15T12:07:19.060Z,-1.98
2022-12-15T12:08:19.038Z,-2.01
2022-12-15T12:09:19.021Z,-2.00
2022-12-15T12:10:19.002Z,-1.96
2022-12-15T12:11:19.067Z,-1.96
2022-12-15T12:12:18.985Z,-1.88
2022-12-15T12:13:18.995Z,-1.88
2022-12-15T12:14:18.958Z,-1.78
2022-12-15T12:15:18.958Z,-1.72
2022-12-15T12:16:18.969Z,-1.72
2022-12-15T12:17:18.929Z,-1.73
2022-12-15T12:18:18.943Z,-1.73
2022-12-15T12:19:18.946Z,-1.75
2022-12-15T12:20:18.976Z,-1.73
2022-12-15T12:21:18.888Z,-1.78
2022-12-15T12:22:18.875Z,-1.78
2022-12-15T12:23:18.877Z,-1.73
2022-12-15T12:24:18.865Z,-1.78
2022-12-15T12:25:18.858Z,-1.75
2022-12-15T12:26:18.849Z,-1.76
2022-12-15T12:27:18.823Z,-1.75
2022-12-15T12:28:18.816Z,-1.76
2022-12-15T12:29:18.819Z,-1.73
2022-12-15T12:30:18.794Z,-1.70
2022-12-15T12:31:18.784Z,-1.73
2022-12-15T12:32:18.801Z,-1.75
2022-12-15T12:33:18.778Z,-1.76
2022-12-15T12:34:18.779Z,-1.75
2022-12-15T12:35:31.023Z,-1.61
2022-12-15T12:36:19.766Z,-1.61
2022-12-15T12:37:18.722Z,-1.61
2022-12-15T12:38:18.717Z,-1.51
2022-12-15T12:39:19.329Z,-1.59
2022-12-15T12:40:18.691Z,-1.52
2022-12-15T12:41:18.694Z,-1.44
2022-12-15T12:42:18.700Z,-1.49
2022-12-15T12:43:18.667Z,-1.43
2022-12-15T12:44:18.651Z,-1.43
2022-12-15T12:45:18.662Z,-1.47
2022-12-15T12:46:18.628Z,-1.44
2022-12-15T12:47:18.620Z,-1.41
2022-12-15T12:48:18.643Z,-1.46
2022-12-15T12:49:22.789Z,-1.41
2022-12-15T12:50:19.596Z,-1.26
2022-12-15T12:51:18.589Z,-1.31
2022-12-15T12:52:18.806Z,-1.36
2022-12-15T12:53:18.577Z,-1.33